createdAt,value
2019-01-12T00:00:35.714Z,1012.08
2019-01-12T00:01:35.690Z,1012.10
2019-01-12T00:02:35.674Z,1012.10
2019-01-12T00:03:35.650Z,1012.11
2019-01-12T00:04:35.633Z,1012.09
2019-01-12T00:05:35.615Z,1012.07
2019-01-12T00:06:35.596Z,1012.05
2019-01-12T00:07:35.574Z,1012.06
2019-01-12T00:08:35.561Z,1012.05
2019-01-12T00:09:35.534Z,1012.06
2019-01-12T00:10:35.514Z,1012.04
2019-01-12T00:11:35.488Z,1012.05
2019-01-12T00:12:35.470Z,1012.01
2019-01-12T00:13:35.453Z,1012.05
2019-01-12T00:14:35.434Z,1012.09
2019-01-12T00:15:35.419Z,1012.05
2019-01-12T00:16:35.389Z,1012.06
2019-01-12T00:17:35.374Z,1012.07
2019-01-12T00:18:35.354Z,1012.10
2019-01-12T00:19:35.330Z,1012.09
2019-01-12T00:20:35.312Z,1012.07
2019-01-12T00:21:35.293Z,1012.10
2019-01-12T00:22:35.270Z,1012.05
2019-01-12T00:23:35.254Z,1012.04
2019-01-12T00:24:35.230Z,1012.06
2019-01-12T00:25:35.210Z,1012.02
2019-01-12T00:26:35.193Z,1012.01
2019-01-12T00:27:35.171Z,1012.01
2019-01-12T00:28:35.152Z,1012.00
2019-01-12T00:29:35.131Z,1012.01
2019-01-12T00:30:35.109Z,1011.99
2019-01-12T00:31:35.092Z,1011.96
2019-01-12T00:32:35.072Z,1011.99
2019-01-12T00:33:35.052Z,1011.97
2019-01-12T00:34:35.038Z,1012.01
2019-01-12T00:35:35.011Z,1012.03
2019-01-12T00:36:34.990Z,1011.95
2019-01-12T00:37:34.969Z,1011.98
2019-01-12T00:38:34.953Z,1011.97
2019-01-12T00:39:34.926Z,1012.00
2019-01-12T00:40:34.909Z,1011.96
2019-01-12T00:41:34.893Z,1011.94
2019-01-12T00:42:34.868Z,1011.93
2019-01-12T00:43:34.852Z,1011.95
2019-01-12T00:44:34.835Z,1011.91
2019-01-12T00:45:34.812Z,1011.92
2019-01-12T00:46:34.794Z,1011.92
2019-01-12T00:47:34.769Z,1011.95
2019-01-12T00:48:34.756Z,1011.89
2019-01-12T00:49:34.728Z,1011.89
2019-01-12T00:50:34.711Z,1011.93
2019-01-12T00:51:34.696Z,1011.90
2019-01-12T00:52:34.683Z,1011.91
2019-01-12T00:53:34.655Z,1011.89
2019-01-12T00:54:38.457Z,1011.91
2019-01-12T00:55:34.609Z,1011.85
2019-01-12T00:56:34.589Z,1011.90
2019-01-12T00:57:34.572Z,1011.97
2019-01-12T00:58:34.553Z,1011.93
2019-01-12T00:59:34.532Z,1011.94
2019-01-12T01:00:34.509Z,1011.93
2019-01-12T01:01:34.494Z,1011.88
2019-01-12T01:02:34.473Z,1011.91
2019-01-12T01:03:34.450Z,1011.92
2019-01-12T01:04:34.430Z,1011.87
2019-01-12T01:05:34.442Z,1011.85
2019-01-12T01:06:34.393Z,1011.84
2019-01-12T01:07:34.371Z,1011.88
2019-01-12T01:08:34.354Z,1011.87
2019-01-12T01:09:34.330Z,1011.85
2019-01-12T01:10:34.316Z,1011.80
2019-01-12T01:11:34.291Z,1011.79
2019-01-12T01:12:34.278Z,1011.81
2019-01-12T01:13:34.252Z,1011.87
2019-01-12T01:14:34.231Z,1011.84
2019-01-12T01:15:34.210Z,1011.83
2019-01-12T01:16:34.198Z,1011.85
2019-01-12T01:17:34.173Z,1011.86
2019-01-12T01:18:34.152Z,1011.83
2019-01-12T01:19:34.135Z,1011.84
2019-01-12T01:20:34.117Z,1011.81
2019-01-12T01:21:34.094Z,1011.88
2019-01-12T01:22:34.074Z,1011.89
2019-01-12T01:23:34.055Z,1011.91
2019-01-12T01:24:34.032Z,1011.84
2019-01-12T01:25:34.013Z,1011.94
2019-01-12T01:26:33.990Z,1011.92
2019-01-12T01:27:33.971Z,1011.97
2019-01-12T01:28:33.975Z,1011.98
2019-01-12T01:29:33.932Z,1011.95
2019-01-12T01:30:33.912Z,1011.99
2019-01-12T01:31:33.891Z,1011.96
2019-01-12T01:32:33.875Z,1011.99
2019-01-12T01:33:33.858Z,1011.98
2019-01-12T01:34:33.836Z,1011.95
2019-01-12T01:35:33.818Z,1012.03
2019-01-12T01:36:33.796Z,1012.05
2019-01-12T01:37:33.777Z,1011.96
2019-01-12T01:38:33.753Z,1011.98
2019-01-12T01:39:33.732Z,1011.96
2019-01-12T01:40:33.717Z,1011.93
2019-01-12T01:41:33.696Z,1011.95
2019-01-12T01:42:33.677Z,1011.89
2019-01-12T01:43:33.652Z,1011.94
2019-01-12T01:44:33.692Z,1011.95
2019-01-12T01:45:33.616Z,1011.90
2019-01-12T01:46:33.596Z,1011.95
2019-01-12T01:47:33.577Z,1011.92
2019-01-12T01:48:33.554Z,1011.90
2019-01-12T01:49:33.534Z,1011.92
2019-01-12T01:50:33.517Z,1011.92
2019-01-12T01:51:33.498Z,1011.87
2019-01-12T01:52:33.475Z,1011.90
2019-01-12T01:53:33.460Z,1011.87
2019-01-12T01:54:33.434Z,1011.86
2019-01-12T01:55:33.417Z,1011.88
2019-01-12T01:56:33.399Z,1011.90
2019-01-12T01:57:33.380Z,1011.83
2019-01-12T01:58:33.354Z,1011.82
2019-01-12T01:59:33.334Z,1011.87
2019-01-12T02:00:33.314Z,1011.83
2019-01-12T02:01:33.298Z,1011.87
2019-01-12T02:02:33.275Z,1011.89
2019-01-12T02:03:33.258Z,1011.86
2019-01-12T02:04:33.240Z,1011.84
2019-01-12T02:05:33.217Z,1011.83
2019-01-12T02:06:33.198Z,1011.83
2019-01-12T02:07:33.178Z,1011.85
2019-01-12T02:08:33.158Z,1011.81
2019-01-12T02:09:33.139Z,1011.83
2019-01-12T02:10:33.116Z,1011.81
2019-01-12T02:11:33.111Z,1011.81
2019-01-12T02:12:33.076Z,1011.80
2019-01-12T02:13:33.056Z,1011.72
2019-01-12T02:14:33.037Z,1011.79
2019-01-12T02:15:33.018Z,1011.73
2019-01-12T02:16:32.998Z,1011.76
2019-01-12T02:17:32.979Z,1011.76
2019-01-12T02:18:32.957Z,1011.75
2019-01-12T02:19:32.936Z,1011.67
2019-01-12T02:20:32.917Z,1011.74
2019-01-12T02:21:32.897Z,1011.72
2019-01-12T02:22:32.877Z,1011.72
2019-01-12T02:23:32.858Z,1011.73
2019-01-12T02:24:32.836Z,1011.75
2019-01-12T02:25:32.820Z,1011.73
2019-01-12T02:26:32.798Z,1011.72
2019-01-12T02:27:32.780Z,1011.71
2019-01-12T02:28:32.757Z,1011.68
2019-01-12T02:29:32.738Z,1011.69
2019-01-12T02:30:33.516Z,1011.67
2019-01-12T02:31:32.697Z,1011.68
2019-01-12T02:32:32.679Z,1011.71
2019-01-12T02:33:32.675Z,1011.68
2019-01-12T02:34:32.642Z,1011.63
2019-01-12T02:35:32.616Z,1011.65
2019-01-12T02:36:32.611Z,1011.62
2019-01-12T02:37:32.578Z,1011.57
2019-01-12T02:38:32.571Z,1011.56
2019-01-12T02:39:32.539Z,1011.58
2019-01-12T02:40:32.522Z,1011.56
2019-01-12T02:41:32.497Z,1011.53
2019-01-12T02:42:32.484Z,1011.52
2019-01-12T02:43:32.458Z,1011.47
2019-01-12T02:44:32.438Z,1011.49
2019-01-12T02:45:32.422Z,1011.48
2019-01-12T02:46:32.401Z,1011.49
2019-01-12T02:47:32.379Z,1011.46
2019-01-12T02:48:32.363Z,1011.45
2019-01-12T02:49:32.342Z,1011.43
2019-01-12T02:50:32.331Z,1011.46
2019-01-12T02:51:32.304Z,1011.41
2019-01-12T02:52:32.283Z,1011.39
2019-01-12T02:53:32.266Z,1011.42
2019-01-12T02:54:32.243Z,1011.42
2019-01-12T02:55:32.230Z,1011.41
2019-01-12T02:56:32.204Z,1011.39
2019-01-12T02:57:32.187Z,1011.38
2019-01-12T02:58:32.165Z,1011.39
2019-01-12T02:59:32.148Z,1011.36
2019-01-12T03:00:32.122Z,1011.34
2019-01-12T03:01:32.107Z,1011.32
2019-01-12T03:02:32.085Z,1011.33
2019-01-12T03:03:32.057Z,1011.28
2019-01-12T03:04:32.042Z,1011.28
2019-01-12T03:05:32.024Z,1011.29
2019-01-12T03:06:32.002Z,1011.28
2019-01-12T03:07:31.982Z,1011.25
2019-01-12T03:08:31.963Z,1011.25
2019-01-12T03:09:31.943Z,1011.28
2019-01-12T03:10:31.921Z,1011.24
2019-01-12T03:11:31.901Z,1011.20
2019-01-12T03:12:31.882Z,1011.24
2019-01-12T03:13:31.866Z,1011.23
2019-01-12T03:14:31.845Z,1011.21
2019-01-12T03:15:31.825Z,1011.22
2019-01-12T03:16:31.806Z,1011.18
2019-01-12T03:17:31.781Z,1011.20
2019-01-12T03:18:31.766Z,1011.18
2019-01-12T03:19:31.745Z,1011.09
2019-01-12T03:20:31.724Z,1011.11
2019-01-12T03:21:31.705Z,1011.14
2019-01-12T03:22:31.683Z,1011.10
2019-01-12T03:23:31.673Z,1011.12
2019-01-12T03:24:31.648Z,1011.09
2019-01-12T03:25:31.621Z,1011.11
2019-01-12T03:26:31.605Z,1011.08
2019-01-12T03:27:31.584Z,1011.08
2019-01-12T03:28:31.564Z,1011.13
2019-01-12T03:29:31.545Z,1011.11
2019-01-12T03:30:31.526Z,1011.07
2019-01-12T03:31:31.506Z,1011.07
2019-01-12T03:32:31.499Z,1011.06
2019-01-12T03:33:31.502Z,1011.03
2019-01-12T03:34:31.449Z,1011.03
2019-01-12T03:35:31.426Z,1011.00
2019-01-12T03:36:31.404Z,1011.01
2019-01-12T03:37:31.385Z,1011.01
2019-01-12T03:38:31.361Z,1011.00
2019-01-12T03:39:31.340Z,1010.93
2019-01-12T03:40:31.320Z,1010.93
2019-01-12T03:41:31.302Z,1010.92
2019-01-12T03:42:31.281Z,1010.94
2019-01-12T03:43:31.261Z,1010.94
2019-01-12T03:44:31.244Z,1010.86
2019-01-12T03:45:31.222Z,1010.85
2019-01-12T03:46:31.204Z,1010.85
2019-01-12T03:47:31.179Z,1010.88
2019-01-12T03:48:31.158Z,1010.83
2019-01-12T03:49:31.140Z,1010.85
2019-01-12T03:50:31.119Z,1010.78
2019-01-12T03:51:31.104Z,1010.80
2019-01-12T03:52:31.082Z,1010.79
2019-01-12T03:53:31.067Z,1010.76
2019-01-12T03:54:31.041Z,1010.76
2019-01-12T03:55:31.018Z,1010.75
2019-01-12T03:56:31.004Z,1010.75
2019-01-12T03:57:30.981Z,1010.72
2019-01-12T03:58:30.964Z,1010.75
2019-01-12T03:59:30.942Z,1010.75
2019-01-12T04:00:30.922Z,1010.79
2019-01-12T04:01:30.899Z,1010.82
2019-01-12T04:02:30.879Z,1010.80
2019-01-12T04:03:30.862Z,1010.82
2019-01-12T04:04:30.842Z,1010.76
2019-01-12T04:05:30.819Z,1010.76
2019-01-12T04:06:30.798Z,1010.76
2019-01-12T04:07:30.781Z,1010.69
2019-01-12T04:08:30.763Z,1010.65
2019-01-12T04:09:30.742Z,1010.67
2019-01-12T04:10:30.721Z,1010.71
2019-01-12T04:11:30.701Z,1010.69
2019-01-12T04:12:30.677Z,1010.71
2019-01-12T04:13:30.659Z,1010.72
2019-01-12T04:14:30.640Z,1010.69
2019-01-12T04:15:30.673Z,1010.69
2019-01-12T04:16:30.603Z,1010.69
2019-01-12T04:17:30.585Z,1010.67
2019-01-12T04:18:30.563Z,1010.65
2019-01-12T04:19:30.548Z,1010.64
2019-01-12T04:20:30.521Z,1010.61
2019-01-12T04:21:30.498Z,1010.60
2019-01-12T04:22:30.477Z,1010.58
2019-01-12T04:23:30.461Z,1010.55
2019-01-12T04:24:30.440Z,1010.60
2019-01-12T04:25:34.042Z,1010.59
2019-01-12T04:26:30.404Z,1010.56
2019-01-12T04:27:30.380Z,1010.58
2019-01-12T04:28:30.358Z,1010.55
2019-01-12T04:29:30.337Z,1010.58
2019-01-12T04:30:30.317Z,1010.54
2019-01-12T04:31:30.301Z,1010.60
2019-01-12T04:32:30.280Z,1010.59
2019-01-12T04:33:30.260Z,1010.54
2019-01-12T04:34:30.241Z,1010.58
2019-01-12T04:35:30.214Z,1010.54
2019-01-12T04:36:30.200Z,1010.54
2019-01-12T04:37:30.181Z,1010.56
2019-01-12T04:38:30.157Z,1010.60
2019-01-12T04:39:30.136Z,1010.55
2019-01-12T04:40:30.120Z,1010.55
2019-01-12T04:41:30.095Z,1010.58
2019-01-12T04:42:30.080Z,1010.60
2019-01-12T04:43:30.066Z,1010.58
2019-01-12T04:44:30.038Z,1010.57
2019-01-12T04:45:30.020Z,1010.59
2019-01-12T04:46:29.998Z,1010.59
2019-01-12T04:47:29.975Z,1010.59
2019-01-12T04:48:29.960Z,1010.63
2019-01-12T04:49:29.936Z,1010.54
2019-01-12T04:50:29.916Z,1010.57
2019-01-12T04:51:29.902Z,1010.58
2019-01-12T04:52:29.878Z,1010.60
2019-01-12T04:53:29.858Z,1010.59
2019-01-12T04:54:29.838Z,1010.57
2019-01-12T04:55:29.814Z,1010.56
2019-01-12T04:56:29.794Z,1010.57
2019-01-12T04:57:29.778Z,1010.54
2019-01-12T04:58:29.784Z,1010.58
2019-01-12T04:59:29.737Z,1010.58
2019-01-12T05:00:29.713Z,1010.61
2019-01-12T05:01:29.697Z,1010.61
2019-01-12T05:02:29.675Z,1010.56
2019-01-12T05:03:29.655Z,1010.59
2019-01-12T05:04:29.638Z,1010.56
2019-01-12T05:05:29.617Z,1010.58
2019-01-12T05:06:29.599Z,1010.59
2019-01-12T05:07:29.576Z,1010.54
2019-01-12T05:08:29.562Z,1010.59
2019-01-12T05:09:29.533Z,1010.57
2019-01-12T05:10:29.515Z,1010.55
2019-01-12T05:11:29.494Z,1010.54
2019-01-12T05:12:29.473Z,1010.61
2019-01-12T05:13:29.452Z,1010.60
2019-01-12T05:14:29.433Z,1010.60
2019-01-12T05:15:29.412Z,1010.61
2019-01-12T05:16:29.394Z,1010.57
2019-01-12T05:17:29.372Z,1010.58
2019-01-12T05:18:29.357Z,1010.55
2019-01-12T05:19:29.335Z,1010.55
2019-01-12T05:20:29.313Z,1010.53
2019-01-12T05:21:29.290Z,1010.55
2019-01-12T05:22:29.273Z,1010.51
2019-01-12T05:23:29.255Z,1010.52
2019-01-12T05:24:29.233Z,1010.53
2019-01-12T05:25:29.213Z,1010.48
2019-01-12T05:26:29.196Z,1010.51
2019-01-12T05:27:29.167Z,1010.51
2019-01-12T05:28:29.149Z,1010.57
2019-01-12T05:29:29.130Z,1010.55
2019-01-12T05:30:29.115Z,1010.55
2019-01-12T05:31:29.092Z,1010.50
2019-01-12T05:32:29.069Z,1010.49
2019-01-12T05:33:29.046Z,1010.45
2019-01-12T05:34:29.032Z,1010.45
2019-01-12T05:35:29.006Z,1010.46
2019-01-12T05:36:29.007Z,1010.42
2019-01-12T05:37:28.969Z,1010.46
2019-01-12T05:38:28.949Z,1010.45
2019-01-12T05:39:28.929Z,1010.44
2019-01-12T05:40:28.908Z,1010.44
2019-01-12T05:41:28.888Z,1010.42
2019-01-12T05:42:28.870Z,1010.39
2019-01-12T05:43:28.854Z,1010.42
2019-01-12T05:44:28.841Z,1010.39
2019-01-12T05:45:28.804Z,1010.40
2019-01-12T05:46:28.786Z,1010.44
2019-01-12T05:47:28.763Z,1010.43
2019-01-12T05:48:28.748Z,1010.46
2019-01-12T05:49:28.723Z,1010.39
2019-01-12T05:50:28.707Z,1010.40
2019-01-12T05:51:28.683Z,1010.44
2019-01-12T05:52:28.663Z,1010.42
2019-01-12T05:53:28.648Z,1010.38
2019-01-12T05:54:28.620Z,1010.40
2019-01-12T05:55:28.603Z,1010.38
2019-01-12T05:56:28.585Z,1010.36
2019-01-12T05:57:28.560Z,1010.30
2019-01-12T05:58:28.541Z,1010.38
2019-01-12T05:59:28.521Z,1010.41
2019-01-12T06:00:28.502Z,1010.36
2019-01-12T06:01:28.523Z,1010.35
2019-01-12T06:02:28.461Z,1010.32
2019-01-12T06:03:28.438Z,1010.38
2019-01-12T06:04:28.420Z,1010.34
2019-01-12T06:05:28.399Z,1010.37
2019-01-12T06:06:28.377Z,1010.33
2019-01-12T06:07:28.357Z,1010.33
2019-01-12T06:08:28.336Z,1010.29
2019-01-12T06:09:28.315Z,1010.29
2019-01-12T06:10:28.297Z,1010.26
2019-01-12T06:11:28.275Z,1010.22
2019-01-12T06:12:28.260Z,1010.25
2019-01-12T06:13:28.239Z,1010.24
2019-01-12T06:14:28.215Z,1010.26
2019-01-12T06:15:28.197Z,1010.21
2019-01-12T06:16:28.173Z,1010.23
2019-01-12T06:17:28.151Z,1010.19
2019-01-12T06:18:28.135Z,1010.16
2019-01-12T06:19:28.115Z,1010.16
2019-01-12T06:20:28.092Z,1010.14
2019-01-12T06:21:28.074Z,1010.14
2019-01-12T06:22:28.055Z,1010.17
2019-01-12T06:23:28.040Z,1010.17
2019-01-12T06:24:28.014Z,1010.17
2019-01-12T06:25:27.991Z,1010.13
2019-01-12T06:26:27.971Z,1010.09
2019-01-12T06:27:27.950Z,1010.12
2019-01-12T06:28:27.933Z,1010.12
2019-01-12T06:29:27.915Z,1010.11
2019-01-12T06:30:27.892Z,1010.08
2019-01-12T06:31:27.871Z,1010.08
2019-01-12T06:32:27.852Z,1010.07
2019-01-12T06:33:27.831Z,1010.03
2019-01-12T06:34:27.808Z,1009.99
2019-01-12T06:35:27.789Z,1010.04
2019-01-12T06:36:27.768Z,1010.00
2019-01-12T06:37:27.754Z,1009.96
2019-01-12T06:38:27.731Z,1009.96
2019-01-12T06:39:27.713Z,1009.97
2019-01-12T06:40:27.688Z,1009.89
2019-01-12T06:41:27.667Z,1009.93
2019-01-12T06:42:27.649Z,1009.96
2019-01-12T06:43:27.629Z,1009.90
2019-01-12T06:44:27.609Z,1009.88
2019-01-12T06:45:27.588Z,1009.83
2019-01-12T06:46:27.568Z,1009.81
2019-01-12T06:47:27.546Z,1009.74
2019-01-12T06:48:27.524Z,1009.76
2019-01-12T06:49:27.501Z,1009.72
2019-01-12T06:50:27.483Z,1009.69
2019-01-12T06:51:27.463Z,1009.65
2019-01-12T06:52:27.442Z,1009.64
2019-01-12T06:53:27.426Z,1009.68
2019-01-12T06:54:27.405Z,1009.72
2019-01-12T06:55:27.385Z,1009.61
2019-01-12T06:56:27.365Z,1009.63
2019-01-12T06:57:27.341Z,1009.65
2019-01-12T06:58:27.323Z,1009.69
2019-01-12T06:59:27.307Z,1009.71
2019-01-12T07:00:27.280Z,1009.68
2019-01-12T07:01:27.261Z,1009.68
2019-01-12T07:02:27.248Z,1009.70
2019-01-12T07:03:27.221Z,1009.68
2019-01-12T07:04:27.200Z,1009.66
2019-01-12T07:05:27.181Z,1009.62
2019-01-12T07:06:27.161Z,1009.65
2019-01-12T07:07:27.142Z,1009.54
2019-01-12T07:08:27.123Z,1009.54
2019-01-12T07:09:27.105Z,1009.55
2019-01-12T07:10:27.081Z,1009.50
2019-01-12T07:11:27.059Z,1009.53
2019-01-12T07:12:27.042Z,1009.49
2019-01-12T07:13:27.023Z,1009.49
2019-01-12T07:14:27.002Z,1009.52
2019-01-12T07:15:26.984Z,1009.49
2019-01-12T07:16:26.961Z,1009.49
2019-01-12T07:17:27.242Z,1009.46
2019-01-12T07:18:26.922Z,1009.46
2019-01-12T07:19:26.903Z,1009.47
2019-01-12T07:20:26.878Z,1009.51
2019-01-12T07:21:26.858Z,1009.44
2019-01-12T07:22:26.841Z,1009.42
2019-01-12T07:23:26.823Z,1009.47
2019-01-12T07:24:26.801Z,1009.39
2019-01-12T07:25:26.784Z,1009.39
2019-01-12T07:26:26.761Z,1009.35
2019-01-12T07:27:26.739Z,1009.31
2019-01-12T07:28:26.718Z,1009.34
2019-01-12T07:29:26.697Z,1009.29
2019-01-12T07:30:26.679Z,1009.28
2019-01-12T07:31:26.659Z,1009.27
2019-01-12T07:32:26.638Z,1009.30
2019-01-12T07:33:26.618Z,1009.25
2019-01-12T07:34:26.595Z,1009.22
2019-01-12T07:35:26.580Z,1009.21
2019-01-12T07:36:26.556Z,1009.22
2019-01-12T07:37:26.538Z,1009.19
2019-01-12T07:38:26.518Z,1009.19
2019-01-12T07:39:26.494Z,1009.19
2019-01-12T07:40:26.483Z,1009.22
2019-01-12T07:41:26.454Z,1009.14
2019-01-12T07:42:26.439Z,1009.18
2019-01-12T07:43:26.413Z,1009.16
2019-01-12T07:44:26.394Z,1009.14
2019-01-12T07:45:26.376Z,1009.07
2019-01-12T07:46:26.354Z,1009.08
2019-01-12T07:47:26.348Z,1009.06
2019-01-12T07:48:26.312Z,1009.06
2019-01-12T07:49:27.129Z,1008.96
2019-01-12T07:50:26.274Z,1008.97
2019-01-12T07:51:26.255Z,1008.94
2019-01-12T07:52:26.241Z,1008.93
2019-01-12T07:53:26.217Z,1008.90
2019-01-12T07:54:26.196Z,1008.92
2019-01-12T07:55:26.171Z,1008.95
2019-01-12T07:56:26.153Z,1008.86
2019-01-12T07:57:26.136Z,1008.85
2019-01-12T07:58:26.111Z,1008.89
2019-01-12T07:59:26.094Z,1008.84
2019-01-12T08:00:26.071Z,1008.86
2019-01-12T08:01:26.094Z,1008.88
2019-01-12T08:02:26.031Z,1008.86
2019-01-12T08:03:26.010Z,1008.87
2019-01-12T08:04:25.993Z,1008.81
2019-01-12T08:05:25.978Z,1008.84
2019-01-12T08:06:25.952Z,1008.79
2019-01-12T08:07:25.932Z,1008.80
2019-01-12T08:08:25.910Z,1008.80
2019-01-12T08:09:25.889Z,1008.80
2019-01-12T08:10:27.032Z,1008.74
2019-01-12T08:11:25.852Z,1008.77
2019-01-12T08:12:25.832Z,1008.75
2019-01-12T08:13:25.815Z,1008.74
2019-01-12T08:14:25.790Z,1008.71
2019-01-12T08:15:25.771Z,1008.64
2019-01-12T08:16:25.752Z,1008.68
2019-01-12T08:17:25.729Z,1008.67
2019-01-12T08:18:25.710Z,1008.65
2019-01-12T08:19:25.691Z,1008.61
2019-01-12T08:20:25.672Z,1008.58
2019-01-12T08:21:25.651Z,1008.56
2019-01-12T08:22:25.632Z,1008.57
2019-01-12T08:23:25.609Z,1008.52
2019-01-12T08:24:25.591Z,1008.53
2019-01-12T08:25:25.569Z,1008.53
2019-01-12T08:26:31.187Z,1008.54
2019-01-12T08:27:25.531Z,1008.51
2019-01-12T08:28:25.513Z,1008.53
2019-01-12T08:29:25.488Z,1008.56
2019-01-12T08:30:25.474Z,1008.53
2019-01-12T08:31:25.461Z,1008.44
2019-01-12T08:32:25.429Z,1008.49
2019-01-12T08:33:25.409Z,1008.53
2019-01-12T08:34:25.395Z,1008.57
2019-01-12T08:35:25.371Z,1008.59
2019-01-12T08:36:25.358Z,1008.57
2019-01-12T08:37:25.331Z,1008.50
2019-01-12T08:38:25.310Z,1008.54
2019-01-12T08:39:25.289Z,1008.67
2019-01-12T08:40:25.272Z,1008.69
2019-01-12T08:41:25.250Z,1008.67
2019-01-12T08:42:25.232Z,1008.70
2019-01-12T08:43:25.211Z,1008.73
2019-01-12T08:44:25.191Z,1008.65
2019-01-12T08:45:25.175Z,1008.81
2019-01-12T08:46:25.150Z,1008.73
2019-01-12T08:47:25.131Z,1008.78
2019-01-12T08:48:25.110Z,1008.74
2019-01-12T08:49:25.092Z,1008.65
2019-01-12T08:50:25.072Z,1008.51
2019-01-12T08:51:25.047Z,1008.42
2019-01-12T08:52:25.029Z,1008.40
2019-01-12T08:53:25.015Z,1008.35
2019-01-12T08:54:24.989Z,1008.29
2019-01-12T08:55:24.972Z,1008.33
2019-01-12T08:56:24.952Z,1008.29
2019-01-12T08:57:24.932Z,1008.29
2019-01-12T08:58:24.910Z,1008.28
2019-01-12T08:59:24.891Z,1008.36
2019-01-12T09:00:24.871Z,1008.23
2019-01-12T09:01:24.852Z,1008.21
2019-01-12T09:02:24.832Z,1008.16
2019-01-12T09:03:24.811Z,1008.21
2019-01-12T09:04:24.788Z,1008.28
2019-01-12T09:05:24.771Z,1008.20
2019-01-12T09:06:24.750Z,1008.16
2019-01-12T09:07:24.738Z,1008.17
2019-01-12T09:08:24.711Z,1008.12
2019-01-12T09:09:24.696Z,1008.15
2019-01-12T09:10:24.696Z,1008.06
2019-01-12T09:11:24.651Z,1008.10
2019-01-12T09:12:24.628Z,1008.09
2019-01-12T09:13:24.608Z,1007.96
2019-01-12T09:14:24.592Z,1008.03
2019-01-12T09:15:24.571Z,1007.98
2019-01-12T09:16:24.552Z,1008.00
2019-01-12T09:17:24.529Z,1007.97
2019-01-12T09:18:24.510Z,1007.93
2019-01-12T09:19:24.487Z,1008.00
2019-01-12T09:20:24.473Z,1008.00
2019-01-12T09:21:24.458Z,1008.02
2019-01-12T09:22:24.430Z,1008.00
2019-01-12T09:23:24.413Z,1008.05
2019-01-12T09:24:24.389Z,1007.99
2019-01-12T09:25:24.392Z,1008.03
2019-01-12T09:26:24.353Z,1008.08
2019-01-12T09:27:24.331Z,1008.01
2019-01-12T09:28:24.312Z,1008.00
2019-01-12T09:29:24.291Z,1007.98
2019-01-12T09:30:24.274Z,1007.91
2019-01-12T09:31:24.251Z,1007.87
2019-01-12T09:32:24.228Z,1007.84
2019-01-12T09:33:24.211Z,1007.84
2019-01-12T09:34:24.192Z,1007.78
2019-01-12T09:35:24.172Z,1007.78
2019-01-12T09:36:24.151Z,1007.70
2019-01-12T09:37:24.164Z,1007.68
2019-01-12T09:38:24.111Z,1007.75
2019-01-12T09:39:24.087Z,1007.74
2019-01-12T09:40:24.074Z,1007.73
2019-01-12T09:41:24.052Z,1007.67
2019-01-12T09:42:24.031Z,1007.66
2019-01-12T09:43:24.011Z,1007.60
2019-01-12T09:44:23.994Z,1007.71
2019-01-12T09:45:23.971Z,1007.64
2019-01-12T09:46:23.952Z,1007.68
2019-01-12T09:47:23.928Z,1007.72
2019-01-12T09:48:23.910Z,1007.69
2019-01-12T09:49:23.891Z,1007.65
2019-01-12T09:50:23.872Z,1007.60
2019-01-12T09:51:23.851Z,1007.62
2019-01-12T09:52:23.833Z,1007.66
2019-01-12T09:53:23.817Z,1007.60
2019-01-12T09:54:23.789Z,1007.64
2019-01-12T09:55:23.769Z,1007.64
2019-01-12T09:56:23.748Z,1007.63
2019-01-12T09:57:23.735Z,1007.61
2019-01-12T09:58:23.712Z,1007.57
2019-01-12T09:59:23.695Z,1007.59
2019-01-12T10:00:23.672Z,1007.56
2019-01-12T10:01:23.651Z,1007.50
2019-01-12T10:02:23.633Z,1007.51
2019-01-12T10:03:23.623Z,1007.45
2019-01-12T10:04:23.594Z,1007.40
2019-01-12T10:05:23.568Z,1007.44
2019-01-12T10:06:23.548Z,1007.34
2019-01-12T10:07:23.535Z,1007.25
2019-01-12T10:08:23.511Z,1007.24
2019-01-12T10:09:23.491Z,1007.15
2019-01-12T10:10:23.481Z,1007.03
2019-01-12T10:11:23.453Z,1007.04
2019-01-12T10:12:23.432Z,1007.06
2019-01-12T10:13:23.410Z,1007.04
2019-01-12T10:14:23.390Z,1007.04
2019-01-12T10:15:23.365Z,1007.03
2019-01-12T10:16:23.350Z,1007.05
2019-01-12T10:17:23.329Z,1007.10
2019-01-12T10:18:23.309Z,1007.03
2019-01-12T10:19:23.288Z,1007.02
2019-01-12T10:20:23.265Z,1007.00
2019-01-12T10:21:23.246Z,1006.95
2019-01-12T10:22:28.537Z,1006.84
2019-01-12T10:23:23.210Z,1006.85
2019-01-12T10:24:23.188Z,1006.83
2019-01-12T10:25:23.165Z,1006.82
2019-01-12T10:26:23.148Z,1006.72
2019-01-12T10:27:23.127Z,1006.67
2019-01-12T10:28:23.107Z,1006.70
2019-01-12T10:29:23.089Z,1006.59
2019-01-12T10:30:23.071Z,1006.62
2019-01-12T10:31:23.046Z,1006.60
2019-01-12T10:32:23.024Z,1006.61
2019-01-12T10:33:23.006Z,1006.61
2019-01-12T10:34:22.993Z,1006.53
2019-01-12T10:35:22.967Z,1006.62
2019-01-12T10:36:22.946Z,1006.50
2019-01-12T10:37:22.923Z,1006.53
2019-01-12T10:38:22.910Z,1006.50
2019-01-12T10:39:22.884Z,1006.53
2019-01-12T10:40:22.865Z,1006.48
2019-01-12T10:41:22.846Z,1006.46
2019-01-12T10:42:22.826Z,1006.41
2019-01-12T10:43:22.805Z,1006.39
2019-01-12T10:44:22.798Z,1006.38
2019-01-12T10:45:22.766Z,1006.48
2019-01-12T10:46:22.753Z,1006.39
2019-01-12T10:47:22.721Z,1006.29
2019-01-12T10:48:22.704Z,1006.35
2019-01-12T10:49:22.678Z,1006.26
2019-01-12T10:50:22.659Z,1006.28
2019-01-12T10:51:22.643Z,1006.28
2019-01-12T10:52:22.625Z,1006.25
2019-01-12T10:53:22.601Z,1006.22
2019-01-12T10:54:22.583Z,1006.17
2019-01-12T10:55:22.562Z,1006.18
2019-01-12T10:56:22.538Z,1006.21
2019-01-12T10:57:22.523Z,1006.16
2019-01-12T10:58:22.501Z,1006.18
2019-01-12T10:59:22.476Z,1006.10
2019-01-12T11:00:22.458Z,1006.09
2019-01-12T11:01:22.438Z,1006.04
2019-01-12T11:02:22.421Z,1006.01
2019-01-12T11:03:22.398Z,1005.98
2019-01-12T11:04:22.380Z,1005.96
2019-01-12T11:05:22.358Z,1005.96
2019-01-12T11:06:22.339Z,1005.92
2019-01-12T11:07:22.315Z,1005.91
2019-01-12T11:08:22.299Z,1005.99
2019-01-12T11:09:22.275Z,1005.85
2019-01-12T11:10:22.263Z,1005.87
2019-01-12T11:11:22.238Z,1005.90
2019-01-12T11:12:22.213Z,1005.78
2019-01-12T11:13:22.197Z,1005.76
2019-01-12T11:14:22.180Z,1005.74
2019-01-12T11:15:22.154Z,1005.67
2019-01-12T11:16:22.135Z,1005.73
2019-01-12T11:17:22.116Z,1005.65
2019-01-12T11:18:22.101Z,1005.61
2019-01-12T11:19:22.072Z,1005.63
2019-01-12T11:20:22.054Z,1005.66
2019-01-12T11:21:22.037Z,1005.62
2019-01-12T11:22:22.010Z,1005.54
2019-01-12T11:23:21.998Z,1005.57
2019-01-12T11:24:21.974Z,1005.57
2019-01-12T11:25:21.953Z,1005.51
2019-01-12T11:26:21.936Z,1005.50
2019-01-12T11:27:21.913Z,1005.48
2019-01-12T11:28:21.890Z,1005.37
2019-01-12T11:29:21.869Z,1005.43
2019-01-12T11:30:21.855Z,1005.42
2019-01-12T11:31:21.832Z,1005.42
2019-01-12T11:32:21.813Z,1005.39
2019-01-12T11:33:21.788Z,1005.35
2019-01-12T11:34:21.772Z,1005.34
2019-01-12T11:35:21.756Z,1005.30
2019-01-12T11:36:21.733Z,1005.28
2019-01-12T11:37:21.708Z,1005.26
2019-01-12T11:38:21.693Z,1005.28
2019-01-12T11:39:21.669Z,1005.27
2019-01-12T11:40:21.648Z,1005.24
2019-01-12T11:41:21.629Z,1005.17
2019-01-12T11:42:21.610Z,1005.25
2019-01-12T11:43:21.585Z,1005.17
2019-01-12T11:44:21.568Z,1005.24
2019-01-12T11:45:21.545Z,1005.23
2019-01-12T11:46:21.526Z,1005.20
2019-01-12T11:47:21.506Z,1005.17
2019-01-12T11:48:21.487Z,1005.14
2019-01-12T11:49:21.467Z,1005.12
2019-01-12T11:50:21.448Z,1005.07
2019-01-12T11:51:21.426Z,1005.10
2019-01-12T11:52:21.461Z,1005.07
2019-01-12T11:53:21.390Z,1005.06
2019-01-12T11:54:21.365Z,1005.06
2019-01-12T11:55:21.345Z,1005.05
2019-01-12T11:56:21.326Z,1004.84
2019-01-12T11:57:21.302Z,1004.96
2019-01-12T11:58:21.287Z,1004.94
2019-01-12T11:59:21.263Z,1004.92
2019-01-12T12:00:21.242Z,1004.84
2019-01-12T12:01:21.225Z,1004.80
2019-01-12T12:02:21.199Z,1004.81
2019-01-12T12:03:21.180Z,1004.78
2019-01-12T12:04:21.160Z,1004.73
2019-01-12T12:05:21.143Z,1004.66